Time;durP1;ratioP1;P1;durP2;ratioP2;P2;SDS_P1;SDS_P2;PMS_P1;PMS_P2;Temp;Humidity;BMP_temperature;BMP_pressure;BME280_temperature;BME280_humidity;BME280_pressure;Samples;Min_cycle;Max_cycle;Signal;HPM_P1;HPM_P2
2022/11/03 00:02:16;;;;;;;10.35;1.80;;;11.00;99.90;;;;;;5079915;28;20408;-75
2022/11/03 00:04:42;;;;;;;9.75;1.70;;;11.00;99.90;;;;;;5104805;28;20439;-76
2022/11/03 00:07:09;;;;;;;9.57;1.98;;;11.00;99.90;;;;;;5115837;27;20741;-75
2022/11/03 00:09:34;;;;;;;12.65;2.25;;;11.00;99.90;;;;;;5126303;27;20430;-75
2022/11/03 00:12:00;;;;;;;10.55;2.00;;;11.00;99.90;;;;;;5115310;27;20485;-75
2022/11/03 00:14:26;;;;;;;11.85;2.33;;;11.00;99.90;;;;;;5097900;28;20416;-75
2022/11/03 00:16:52;;;;;;;10.60;2.10;;;11.10;99.90;;;;;;5120718;28;20394;-75
2022/11/03 00:19:18;;;;;;;11.02;2.33;;;11.10;99.90;;;;;;5126936;28;20406;-75
2022/11/03 00:21:44;;;;;;;9.53;1.80;;;11.10;99.90;;;;;;5109160;28;20936;-75
2022/11/03 00:24:11;;;;;;;10.20;1.90;;;11.10;99.90;;;;;;5105638;28;20581;-76
2022/11/03 00:26:37;;;;;;;10.18;1.90;;;11.10;99.90;;;;;;5106483;28;20717;-76
2022/11/03 00:29:10;;;;;;;11.50;2.23;;;11.10;99.90;;;;;;5109513;28;20416;-76
2022/11/03 00:31:39;;;;;;;14.55;2.50;;;11.10;99.90;;;;;;5107334;28;20428;-76
2022/11/03 00:34:06;;;;;;;11.73;1.98;;;11.10;99.90;;;;;;5098102;28;20415;-76
2022/11/03 00:36:42;;;;;;;9.77;1.95;;;11.10;99.90;;;;;;5108531;28;20487;-76
2022/11/03 00:39:09;;;;;;;11.68;2.40;;;11.10;99.90;;;;;;5128246;28;20441;-75
2022/11/03 00:41:35;;;;;;;13.50;2.20;;;11.10;99.90;;;;;;5092624;28;20821;-75
2022/11/03 00:44:01;;;;;;;12.25;2.00;;;11.10;99.90;;;;;;5128363;28;20433;-76
2022/11/03 00:46:29;;;;;;;11.57;1.98;;;11.00;99.90;;;;;;5127618;28;20509;-76
2022/11/03 00:48:54;;;;;;;11.77;2.33;;;11.00;99.90;;;;;;5107870;27;20438;-75
2022/11/03 00:51:26;;;;;;;10.67;1.90;;;11.00;99.90;;;;;;5093903;27;21181;-75
2022/11/03 00:53:52;;;;;;;13.00;2.65;;;11.00;99.90;;;;;;5106859;27;20780;-76
2022/11/03 00:56:32;;;;;;;9.68;2.10;;;11.00;99.90;;;;;;5132435;27;20971;-76
2022/11/03 00:58:59;;;;;;;13.23;2.05;;;11.00;99.90;;;;;;5103475;28;20452;-75
2022/11/03 01:01:33;;;;;;;11.00;2.10;;;11.00;99.90;;;;;;5106206;28;20404;-76
2022/11/03 01:06:49;;;;;;;11.60;2.45;;;10.90;99.90;;;;;;5114309;27;20501;-75
2022/11/03 01:09:34;;;;;;;11.27;1.88;;;10.90;99.90;;;;;;5132049;27;20455;-75
2022/11/03 01:12:12;;;;;;;11.48;2.53;;;10.90;99.90;;;;;;5083741;28;20412;-76
2022/11/03 01:14:41;;;;;;;13.18;2.10;;;10.90;99.90;;;;;;5120860;27;20411;-75
2022/11/03 01:17:10;;;;;;;10.67;2.10;;;10.90;99.90;;;;;;5129731;27;20398;-76
2022/11/03 01:19:35;;;;;;;12.02;1.88;;;10.80;99.90;;;;;;5093829;28;20405;-75
2022/11/03 01:22:01;;;;;;;10.27;2.47;;;10.80;99.90;;;;;;5100653;27;20402;-75
2022/11/03 01:24:27;;;;;;;14.70;2.17;;;10.80;99.90;;;;;;5121823;27;20427;-75
2022/11/03 01:26:52;;;;;;;13.45;2.03;;;10.70;99.90;;;;;;5129493;27;20422;-75
2022/11/03 01:29:18;;;;;;;10.87;1.80;;;10.70;99.90;;;;;;5121463;27;20406;-75
2022/11/03 01:31:44;;;;;;;11.85;2.20;;;10.70;99.90;;;;;;5131984;27;20471;-75
2022/11/03 01:34:17;;;;;;;12.30;2.55;;;10.70;99.90;;;;;;5105241;28;20404;-76
2022/11/03 01:36:43;;;;;;;13.23;1.80;;;10.70;99.90;;;;;;5107384;28;20429;-75
2022/11/03 01:39:14;;;;;;;9.95;1.88;;;10.60;99.90;;;;;;5096694;27;20423;-75
2022/11/03 01:41:41;;;;;;;11.07;2.00;;;10.60;99.90;;;;;;5109153;28;20424;-76
2022/11/03 01:44:07;;;;;;;11.27;2.17;;;10.60;99.90;;;;;;5109241;28;20962;-75
2022/11/03 01:46:40;;;;;;;12.38;2.00;;;10.60;99.90;;;;;;5116163;27;20408;-75
2022/11/03 01:49:13;;;;;;;13.40;2.67;;;10.60;99.90;;;;;;5103973;27;20488;-75
2022/11/03 01:51:42;;;;;;;7.90;1.75;;;10.60;99.90;;;;;;5107680;28;20415;-75
2022/11/03 01:54:11;;;;;;;12.00;2.05;;;10.60;99.90;;;;;;5127707;27;20489;-75
2022/11/03 01:56:41;;;;;;;15.43;2.67;;;10.50;99.90;;;;;;5110052;27;20418;-75
2022/11/03 01:59:08;;;;;;;10.02;1.90;;;10.60;99.90;;;;;;5122588;27;20789;-75
2022/11/03 02:01:35;;;;;;;10.35;2.13;;;10.60;99.90;;;;;;5110970;27;20400;-75
2022/11/03 02:04:07;;;;;;;11.85;2.00;;;10.60;99.90;;;;;;5113057;27;20426;-75
2022/11/03 02:06:35;;;;;;;12.00;2.17;;;10.60;99.90;;;;;;5099752;28;20582;-76
2022/11/03 02:09:06;;;;;;;15.50;2.10;;;10.60;99.90;;;;;;5109242;28;20400;-75
2022/11/03 02:14:18;;;;;;;11.77;2.65;;;10.60;99.90;;;;;;5099033;28;21265;-75
2022/11/03 02:16:50;;;;;;;10.03;1.57;;;10.60;99.90;;;;;;5105040;27;20426;-75
2022/11/03 02:19:24;;;;;;;13.13;2.10;;;10.60;99.90;;;;;;5092694;28;20404;-76
2022/11/03 02:22:18;;;;;;;10.80;2.10;;;10.50;99.90;;;;;;5126678;27;20409;-76
2022/11/03 02:25:02;;;;;;;11.98;2.40;;;10.60;99.90;;;;;;5092276;28;20523;-75
2022/11/03 02:27:28;;;;;;;12.32;2.60;;;10.60;99.90;;;;;;5128620;27;20468;-75
2022/11/03 02:29:56;;;;;;;14.40;2.07;;;10.60;99.90;;;;;;5110259;27;20987;-75
2022/11/03 02:32:26;;;;;;;13.73;2.30;;;10.50;99.90;;;;;;5130896;27;20737;-75
2022/11/03 02:35:22;;;;;;;14.13;2.73;;;10.50;99.90;;;;;;5130624;27;20468;-75
2022/11/03 02:37:53;;;;;;;15.85;2.20;;;10.60;99.90;;;;;;5130900;27;20939;-75
2022/11/03 02:40:28;;;;;;;10.60;2.20;;;10.50;99.90;;;;;;5129085;27;20417;-75
2022/11/03 02:42:54;;;;;;;12.57;2.63;;;10.50;99.90;;;;;;5108975;28;20487;-75
2022/11/03 02:45:23;;;;;;;13.07;2.25;;;10.50;99.90;;;;;;5127055;27;21621;-75
2022/11/03 02:47:51;;;;;;;9.73;2.33;;;10.50;99.90;;;;;;5129989;27;20397;-75
2022/11/03 02:50:18;;;;;;;12.15;2.25;;;10.50;99.90;;;;;;5124910;27;20427;-75
2022/11/03 02:52:51;;;;;;;11.73;2.40;;;10.50;99.90;;;;;;5122666;27;20398;-75
2022/11/03 02:55:39;;;;;;;9.77;2.10;;;10.50;99.90;;;;;;5128876;27;20410;-75
2022/11/03 02:58:38;;;;;;;12.38;2.40;;;10.50;99.90;;;;;;5129984;27;20915;-75
2022/11/03 03:01:17;;;;;;;10.77;1.80;;;10.50;99.90;;;;;;5111847;27;20494;-75
2022/11/03 03:04:05;;;;;;;14.10;2.40;;;10.50;99.90;;;;;;5128886;27;20499;-75
2022/11/03 03:06:51;;;;;;;12.77;2.38;;;10.50;99.90;;;;;;5108423;28;20837;-75
2022/11/03 03:09:31;;;;;;;11.70;2.30;;;10.50;99.90;;;;;;5113401;27;20404;-75
2022/11/03 03:11:59;;;;;;;10.27;1.98;;;10.50;99.90;;;;;;5130113;27;20749;-75
2022/11/03 03:14:30;;;;;;;11.90;1.90;;;10.50;99.90;;;;;;5111609;27;20874;-75
2022/11/03 03:17:00;;;;;;;14.07;2.47;;;10.50;99.90;;;;;;5107810;28;20415;-75
2022/11/03 03:19:28;;;;;;;12.77;2.20;;;10.50;99.90;;;;;;5094132;28;20952;-75
2022/11/03 03:21:57;;;;;;;12.02;2.47;;;10.50;99.90;;;;;;5121304;27;20410;-75
2022/11/03 03:24:31;;;;;;;12.38;1.90;;;10.50;99.90;;;;;;5110628;27;20427;-74
2022/11/03 03:27:01;;;;;;;14.60;2.50;;;10.50;99.90;;;;;;5130233;27;20398;-74
2022/11/03 03:29:32;;;;;;;11.17;2.23;;;10.50;99.90;;;;;;5122509;27;20392;-75
2022/11/03 03:32:02;;;;;;;12.68;2.63;;;10.50;99.90;;;;;;5111540;27;20396;-75
2022/11/03 03:34:29;;;;;;;10.90;1.83;;;10.50;99.90;;;;;;5107520;28;20415;-75
2022/11/03 03:36:58;;;;;;;12.48;2.22;;;10.50;99.90;;;;;;5123357;27;20437;-75
2022/11/03 03:39:28;;;;;;;12.77;2.05;;;10.40;99.90;;;;;;5129896;27;20451;-75
2022/11/03 03:41:56;;;;;;;12.07;2.38;;;10.50;99.90;;;;;;5108841;27;20924;-75
2022/11/03 03:44:23;;;;;;;12.32;2.17;;;10.40;99.90;;;;;;5080848;27;20519;-75
2022/11/03 03:47:13;;;;;;;11.77;1.98;;;10.50;99.90;;;;;;5129421;27;20802;-75
2022/11/03 03:49:39;;;;;;;12.25;2.22;;;10.40;99.90;;;;;;5116815;27;20411;-75
2022/11/03 03:52:08;;;;;;;10.65;2.10;;;10.40;99.90;;;;;;5111375;27;20418;-75
2022/11/03 03:54:34;;;;;;;13.02;2.08;;;10.50;99.90;;;;;;5129165;27;20794;-75
2022/11/03 03:57:02;;;;;;;12.32;2.30;;;10.50;99.90;;;;;;5104991;28;20487;-75
2022/11/03 03:59:28;;;;;;;10.63;2.20;;;10.50;99.90;;;;;;5089419;28;20440;-75
2022/11/03 04:01:54;;;;;;;12.97;2.27;;;10.50;99.90;;;;;;5129594;27;20442;-75
2022/11/03 04:04:20;;;;;;;10.23;2.20;;;10.50;99.90;;;;;;5129027;27;20541;-75
2022/11/03 04:06:45;;;;;;;15.27;2.90;;;10.50;99.90;;;;;;5094015;28;20428;-75
2022/11/03 04:09:11;;;;;;;11.95;2.40;;;10.50;99.90;;;;;;5110516;28;20410;-75
2022/11/03 04:22:47;;;;;;;12.05;2.72;;;10.50;99.90;;;;;;5072112;28;20463;-75
2022/11/03 04:25:13;;;;;;;14.98;2.70;;;10.50;99.90;;;;;;5130720;27;20464;-75
2022/11/03 04:27:40;;;;;;;14.30;2.43;;;10.50;99.90;;;;;;5132572;27;20923;-75
2022/11/03 04:30:15;;;;;;;15.10;2.53;;;10.50;99.90;;;;;;5132931;27;20403;-75
2022/11/03 04:32:41;;;;;;;14.15;2.50;;;10.50;99.90;;;;;;5126340;27;20403;-75
2022/11/03 04:35:22;;;;;;;14.77;2.60;;;10.50;99.90;;;;;;5133478;27;20394;-75
2022/11/03 04:37:54;;;;;;;11.13;2.97;;;10.40;99.90;;;;;;5099736;28;20544;-75
2022/11/03 04:40:20;;;;;;;15.45;2.83;;;10.40;99.90;;;;;;5126296;27;20410;-75
2022/11/03 04:42:46;;;;;;;12.32;3.15;;;10.40;99.90;;;;;;5094689;28;20400;-75
2022/11/03 04:45:29;;;;;;;15.02;3.10;;;10.40;99.90;;;;;;5125520;27;20786;-75
2022/11/03 04:47:58;;;;;;;15.60;2.78;;;10.40;99.90;;;;;;5102747;28;20508;-75
2022/11/03 04:50:25;;;;;;;14.77;2.78;;;10.40;99.90;;;;;;5132331;27;20406;-75
2022/11/03 04:52:54;;;;;;;14.32;3.80;;;10.40;99.90;;;;;;5120684;27;20396;-75
2022/11/03 04:55:20;;;;;;;15.52;2.83;;;10.40;99.90;;;;;;5113302;27;21677;-75
2022/11/03 04:57:48;;;;;;;14.30;2.83;;;10.40;99.90;;;;;;5110962;28;20487;-75
2022/11/03 05:00:18;;;;;;;12.32;2.90;;;10.30;99.90;;;;;;5131204;27;20448;-75
2022/11/03 05:02:45;;;;;;;13.30;2.40;;;10.30;99.90;;;;;;5100955;28;20909;-75
2022/11/03 05:05:18;;;;;;;13.68;2.80;;;10.30;99.90;;;;;;5122301;27;20989;-75
2022/11/03 05:07:49;;;;;;;11.70;2.20;;;10.30;99.90;;;;;;5115887;27;20418;-75
2022/11/03 05:10:26;;;;;;;13.43;2.30;;;10.30;99.90;;;;;;5132736;27;20410;-75
2022/11/03 05:12:53;;;;;;;9.88;2.80;;;10.30;99.90;;;;;;5110398;27;20457;-75
2022/11/03 05:15:34;;;;;;;10.13;2.20;;;10.30;99.90;;;;;;5100702;28;20932;-74
2022/11/03 05:18:05;;;;;;;13.23;2.55;;;10.30;99.90;;;;;;5130872;27;20456;-75
2022/11/03 05:20:35;;;;;;;10.03;2.30;;;10.30;99.90;;;;;;5113166;27;20470;-75
2022/11/03 05:23:01;;;;;;;11.45;2.70;;;10.30;99.90;;;;;;5125696;27;20762;-75
2022/11/03 05:25:42;;;;;;;9.45;2.35;;;10.30;99.90;;;;;;5090264;28;20436;-75
2022/11/03 05:28:39;;;;;;;14.27;2.45;;;10.30;99.90;;;;;;5131763;27;20406;-75
2022/11/03 05:31:26;;;;;;;11.43;2.77;;;10.30;99.90;;;;;;5110533;28;20438;-75
2022/11/03 05:33:55;;;;;;;13.63;2.77;;;10.20;99.90;;;;;;5128709;27;20542;-75
2022/11/03 05:36:23;;;;;;;11.67;2.80;;;10.20;99.90;;;;;;5100260;27;20499;-75
2022/11/03 05:38:52;;;;;;;12.30;2.70;;;10.20;99.90;;;;;;5107287;28;20453;-75
2022/11/03 05:41:24;;;;;;;9.98;2.15;;;10.20;99.90;;;;;;5113316;27;20406;-75
2022/11/03 05:43:57;;;;;;;9.25;2.40;;;10.20;99.90;;;;;;5131544;27;20832;-75
2022/11/03 05:46:26;;;;;;;10.10;2.55;;;10.20;99.90;;;;;;5095251;28;20743;-75
2022/11/03 05:48:51;;;;;;;13.38;2.33;;;10.10;99.90;;;;;;5106873;28;20495;-75
2022/11/03 05:51:23;;;;;;;16.27;2.92;;;10.10;99.90;;;;;;5102653;28;20930;-75
2022/11/03 05:53:52;;;;;;;13.70;2.80;;;10.10;99.90;;;;;;5118865;27;20907;-75
2022/11/03 05:56:21;;;;;;;10.77;2.28;;;10.00;99.90;;;;;;5095773;27;20406;-75
2022/11/03 05:58:49;;;;;;;14.25;3.10;;;10.00;99.90;;;;;;5131842;27;20486;-75
2022/11/03 06:01:17;;;;;;;12.10;2.17;;;10.00;99.90;;;;;;5111150;27;20891;-76
2022/11/03 06:03:44;;;;;;;12.75;2.75;;;9.90;99.90;;;;;;5131243;27;20414;-75
2022/11/03 06:06:34;;;;;;;13.68;2.80;;;10.00;99.90;;;;;;5098189;27;20415;-75
2022/11/03 06:09:17;;;;;;;13.32;2.45;;;10.00;99.90;;;;;;5099237;27;20412;-75
2022/11/03 06:11:43;;;;;;;11.02;2.35;;;10.00;99.90;;;;;;5117079;27;20391;-75
2022/11/03 06:14:29;;;;;;;8.32;1.90;;;9.90;99.90;;;;;;5131006;27;20409;-74
2022/11/03 06:17:04;;;;;;;9.70;2.13;;;9.90;99.90;;;;;;5109608;28;20416;-75
2022/11/03 06:19:37;;;;;;;11.23;2.35;;;9.90;99.90;;;;;;5129581;27;20414;-75
2022/11/03 06:22:28;;;;;;;13.10;2.60;;;9.90;99.90;;;;;;5100163;28;20408;-75
2022/11/03 06:25:15;;;;;;;8.82;2.08;;;9.90;99.90;;;;;;5080037;28;20849;-75
2022/11/03 06:27:41;;;;;;;12.57;2.40;;;9.90;99.90;;;;;;5129856;27;20437;-74
2022/11/03 06:30:27;;;;;;;14.57;2.40;;;9.90;99.90;;;;;;5131401;27;20399;-75
2022/11/03 06:33:17;;;;;;;10.40;1.90;;;9.90;99.90;;;;;;5105755;27;20411;-75
2022/11/03 06:35:44;;;;;;;12.52;2.83;;;10.00;99.90;;;;;;5108775;28;20736;-75
2022/11/03 06:38:22;;;;;;;11.23;2.50;;;9.90;99.90;;;;;;5112818;27;20485;-75
2022/11/03 06:40:52;;;;;;;10.55;2.53;;;10.00;99.90;;;;;;5072436;28;20538;-76
2022/11/03 06:43:21;;;;;;;11.98;2.30;;;10.00;99.90;;;;;;5103690;28;20492;-75
2022/11/03 06:45:53;;;;;;;12.15;2.58;;;9.90;99.90;;;;;;5075744;28;20402;-76
2022/11/03 06:48:28;;;;;;;10.65;2.60;;;10.00;99.90;;;;;;5092471;28;20406;-75
2022/11/03 06:50:56;;;;;;;16.23;2.80;;;9.90;99.90;;;;;;5098165;28;20416;-76
2022/11/03 06:53:28;;;;;;;12.15;2.58;;;10.00;99.90;;;;;;5107466;28;20457;-76
2022/11/03 06:55:55;;;;;;;13.30;2.67;;;9.90;99.90;;;;;;5104422;28;20442;-75
2022/11/03 06:58:30;;;;;;;10.85;2.60;;;10.00;99.90;;;;;;5088537;28;20417;-76
2022/11/03 07:01:00;;;;;;;12.65;2.65;;;10.00;99.90;;;;;;5107009;28;20404;-76
2022/11/03 07:03:29;;;;;;;11.55;2.53;;;9.90;99.90;;;;;;5089118;28;20447;-77
2022/11/03 07:06:10;;;;;;;12.25;2.92;;;10.00;99.90;;;;;;5106813;28;20467;-77
2022/11/03 07:08:40;;;;;;;11.77;2.42;;;10.00;99.90;;;;;;5101059;28;20417;-76
2022/11/03 07:11:16;;;;;;;12.00;2.67;;;10.00;99.90;;;;;;5105166;28;20515;-76
2022/11/03 07:13:42;;;;;;;12.25;2.42;;;10.00;99.90;;;;;;5091894;28;20424;-76
2022/11/03 07:16:20;;;;;;;12.45;2.58;;;10.00;99.90;;;;;;5092186;28;20918;-76
2022/11/03 07:18:46;;;;;;;13.38;2.70;;;10.00;99.90;;;;;;5103939;28;20411;-76
2022/11/03 07:21:36;;;;;;;12.30;2.50;;;10.10;99.90;;;;;;5107112;28;20872;-76
2022/11/03 07:24:22;;;;;;;12.35;2.55;;;10.10;99.90;;;;;;5085032;28;20457;-76
2022/11/03 07:27:05;;;;;;;9.27;2.00;;;10.20;99.90;;;;;;5094991;28;20416;-76
2022/11/03 07:29:31;;;;;;;13.27;2.20;;;10.20;99.90;;;;;;5103829;28;20511;-76
2022/11/03 07:31:59;;;;;;;11.23;2.20;;;10.20;99.90;;;;;;5098750;28;20411;-76
2022/11/03 07:34:30;;;;;;;11.55;2.35;;;10.30;99.90;;;;;;5098571;28;21005;-76
2022/11/03 07:36:57;;;;;;;11.18;2.28;;;10.30;99.90;;;;;;5098151;28;20417;-76
2022/11/03 07:39:24;;;;;;;12.13;2.50;;;10.30;99.90;;;;;;5097186;28;20885;-76
2022/11/03 07:41:50;;;;;;;15.03;2.40;;;10.30;99.90;;;;;;5127053;27;20459;-76
2022/11/03 07:44:21;;;;;;;10.02;1.85;;;10.40;99.90;;;;;;5107106;27;20426;-76
2022/11/03 07:46:49;;;;;;;11.75;2.50;;;10.40;99.90;;;;;;5123134;27;20411;-76
2022/11/03 07:49:28;;;;;;;10.55;2.65;;;10.50;99.90;;;;;;5102760;28;20419;-77
2022/11/03 07:51:57;;;;;;;8.60;2.30;;;10.60;99.90;;;;;;5104283;27;20572;-75
2022/11/03 07:54:33;;;;;;;10.88;2.00;;;10.60;99.90;;;;;;5128130;27;20973;-76
2022/11/03 07:57:20;;;;;;;12.15;2.40;;;10.60;99.90;;;;;;5106883;28;20491;-76
2022/11/03 07:59:51;;;;;;;13.60;3.00;;;10.60;99.90;;;;;;5108825;28;20434;-76
2022/11/03 08:02:56;;;;;;;10.70;2.25;;;10.60;99.90;;;;;;5110862;28;20425;-77
2022/11/03 08:05:22;;;;;;;11.17;2.50;;;10.70;99.90;;;;;;5118743;27;20427;-76
2022/11/03 08:07:47;;;;;;;11.50;2.78;;;10.80;99.90;;;;;;5123119;27;20418;-76
2022/11/03 08:10:13;;;;;;;11.37;2.60;;;10.80;99.90;;;;;;5124944;27;20498;-76
2022/11/03 08:12:39;;;;;;;11.85;2.70;;;10.80;99.90;;;;;;5101608;28;20929;-76
2022/11/03 08:15:05;;;;;;;10.17;2.47;;;10.90;99.90;;;;;;5099092;28;20852;-76
2022/11/03 08:17:31;;;;;;;12.00;2.50;;;10.90;99.90;;;;;;5093373;28;20391;-76
2022/11/03 08:19:57;;;;;;;10.85;2.45;;;10.90;99.90;;;;;;5103946;28;20435;-76
2022/11/03 08:22:24;;;;;;;10.47;2.87;;;10.90;99.90;;;;;;5109911;28;20856;-76
2022/11/03 08:24:51;;;;;;;12.93;2.63;;;11.00;99.90;;;;;;5109608;28;20427;-77
2022/11/03 08:27:16;;;;;;;9.60;2.30;;;11.00;99.90;;;;;;5124805;28;20486;-75
2022/11/03 08:29:42;;;;;;;13.07;2.63;;;11.00;99.90;;;;;;5090551;28;20930;-77
2022/11/03 08:32:07;;;;;;;11.27;2.50;;;11.10;99.90;;;;;;5103721;28;20740;-76
2022/11/03 08:34:33;;;;;;;8.47;2.23;;;11.20;99.90;;;;;;5103104;28;20455;-76
2022/11/03 08:36:59;;;;;;;9.75;2.03;;;11.20;99.90;;;;;;5092395;28;20447;-77
2022/11/03 08:39:24;;;;;;;9.70;2.30;;;11.30;99.90;;;;;;5104543;28;20408;-77
2022/11/03 08:41:50;;;;;;;14.30;3.30;;;11.40;99.90;;;;;;5100252;28;20460;-76
2022/11/03 08:44:15;;;;;;;12.73;2.67;;;11.50;99.90;;;;;;5117275;28;20791;-76
2022/11/03 08:46:41;;;;;;;10.52;2.28;;;11.60;99.90;;;;;;5125114;28;20407;-76
2022/11/03 08:49:07;;;;;;;11.00;2.20;;;11.70;99.90;;;;;;5106369;28;21024;-76
2022/11/03 08:51:32;;;;;;;11.57;2.70;;;11.70;99.90;;;;;;5119782;28;20429;-77
2022/11/03 08:53:58;;;;;;;11.23;2.42;;;11.80;99.90;;;;;;5119962;28;20449;-77
2022/11/03 08:56:23;;;;;;;11.17;2.90;;;11.90;99.90;;;;;;5125019;28;20390;-78
2022/11/03 08:58:49;;;;;;;10.75;2.63;;;12.00;99.90;;;;;;5097331;28;20421;-76
2022/11/03 09:01:15;;;;;;;10.70;2.50;;;12.10;99.90;;;;;;5106528;28;20420;-76
2022/11/03 09:03:40;;;;;;;11.35;2.67;;;12.10;99.90;;;;;;5088787;28;20515;-76
2022/11/03 09:06:07;;;;;;;11.53;2.57;;;12.20;99.90;;;;;;5119385;28;20482;-76
2022/11/03 09:08:32;;;;;;;9.05;2.28;;;12.20;99.90;;;;;;5108582;27;20406;-76
2022/11/03 09:10:58;;;;;;;10.97;2.20;;;12.20;99.90;;;;;;5113611;27;20409;-77
2022/11/03 09:13:24;;;;;;;8.55;2.22;;;12.30;99.90;;;;;;5124095;27;20427;-77
2022/11/03 09:15:50;;;;;;;13.03;2.60;;;12.30;99.90;;;;;;5107719;27;20418;-77
2022/11/03 09:18:16;;;;;;;11.02;2.22;;;12.30;99.90;;;;;;5132389;27;20924;-77
2022/11/03 09:20:41;;;;;;;10.75;2.72;;;12.40;99.90;;;;;;5113367;27;20402;-77
2022/11/03 09:23:07;;;;;;;15.93;3.63;;;12.40;99.90;;;;;;5110665;27;20411;-77
2022/11/03 09:25:32;;;;;;;11.73;2.50;;;12.40;99.90;;;;;;5107377;27;20430;-77
2022/11/03 09:27:58;;;;;;;9.50;2.67;;;12.40;99.90;;;;;;5123748;27;20420;-77
2022/11/03 09:30:24;;;;;;;12.87;3.13;;;12.40;99.90;;;;;;5105278;28;20408;-77
2022/11/03 09:32:49;;;;;;;11.60;2.58;;;12.40;99.90;;;;;;5123663;27;20407;-77
2022/11/03 09:35:15;;;;;;;10.93;2.20;;;12.40;99.90;;;;;;5102139;27;20455;-77
2022/11/03 09:37:41;;;;;;;9.03;2.70;;;12.50;99.90;;;;;;5109179;28;20416;-77
2022/11/03 09:40:10;;;;;;;8.13;2.60;;;12.40;99.90;;;;;;5118607;27;20482;-77
2022/11/03 09:42:37;;;;;;;11.82;2.95;;;12.50;99.90;;;;;;5107736;27;20503;-77
2022/11/03 09:45:04;;;;;;;12.43;2.90;;;12.50;99.90;;;;;;5111190;27;20436;-77
2022/11/03 09:47:39;;;;;;;11.32;2.63;;;12.60;99.90;;;;;;5128259;27;20395;-76
2022/11/03 09:50:05;;;;;;;13.70;2.75;;;12.70;99.90;;;;;;5101803;27;20431;-75
2022/11/03 09:52:33;;;;;;;10.67;2.37;;;12.80;99.90;;;;;;5100591;27;20940;-75
2022/11/03 09:54:58;;;;;;;11.48;2.90;;;12.80;99.90;;;;;;5129350;27;20453;-75
2022/11/03 09:57:28;;;;;;;8.77;2.10;;;12.90;99.90;;;;;;5125048;27;20448;-75
2022/11/03 09:59:54;;;;;;;11.60;2.28;;;12.90;99.90;;;;;;5109206;28;20412;-75
2022/11/03 10:02:23;;;;;;;9.57;2.63;;;13.00;99.90;;;;;;5097699;27;20402;-75
2022/11/03 10:04:51;;;;;;;10.73;2.85;;;13.10;99.90;;;;;;5129012;27;20426;-75
2022/11/03 10:07:17;;;;;;;11.57;2.75;;;13.10;99.90;;;;;;5129385;27;20505;-75
2022/11/03 10:09:46;;;;;;;10.68;2.70;;;13.20;99.90;;;;;;5110642;27;20823;-75
2022/11/03 10:12:12;;;;;;;15.00;3.03;;;13.20;99.90;;;;;;5102012;27;20510;-75
2022/11/03 10:14:38;;;;;;;10.50;2.67;;;13.30;99.90;;;;;;5129505;27;20979;-75
2022/11/03 10:17:05;;;;;;;11.43;2.50;;;13.40;99.90;;;;;;5130079;27;20972;-75
2022/11/03 10:19:30;;;;;;;9.60;2.10;;;13.50;99.90;;;;;;5129823;27;20406;-75
2022/11/03 10:21:56;;;;;;;11.38;2.25;;;13.60;99.90;;;;;;5083013;28;20435;-75
2022/11/03 10:24:21;;;;;;;11.00;2.33;;;13.70;99.90;;;;;;5122569;27;21099;-75
2022/11/03 10:26:55;;;;;;;13.17;2.60;;;13.80;99.90;;;;;;5128582;27;20406;-75
2022/11/03 10:29:24;;;;;;;15.52;3.00;;;14.10;99.90;;;;;;5128119;27;21529;-75
2022/11/03 10:31:52;;;;;;;12.27;2.50;;;14.30;99.90;;;;;;5111459;27;20443;-75
2022/11/03 10:34:36;;;;;;;11.35;2.30;;;14.50;99.90;;;;;;5080393;28;20427;-75
2022/11/03 10:37:23;;;;;;;10.40;2.00;;;14.70;99.90;;;;;;5117293;27;20417;-75
2022/11/03 10:39:53;;;;;;;8.73;2.28;;;14.80;99.90;;;;;;5103371;27;20427;-75
2022/11/03 10:42:29;;;;;;;9.45;2.25;;;14.70;99.90;;;;;;5127698;27;20431;-75
2022/11/03 10:45:19;;;;;;;10.35;2.53;;;14.60;99.90;;;;;;5111310;27;20765;-75
2022/11/03 10:47:58;;;;;;;11.23;2.30;;;14.50;99.90;;;;;;5116151;27;22580;-75
2022/11/03 10:50:25;;;;;;;9.77;2.28;;;14.40;99.90;;;;;;5097594;28;20424;-75
2022/11/03 10:52:51;;;;;;;11.27;2.70;;;14.20;99.90;;;;;;5110348;27;20518;-75
2022/11/03 10:55:19;;;;;;;13.45;2.42;;;14.20;99.90;;;;;;5128936;27;20482;-75
2022/11/03 10:57:45;;;;;;;8.80;2.63;;;14.10;99.90;;;;;;5101344;28;20544;-75
2022/11/03 11:00:15;;;;;;;11.00;2.40;;;14.10;99.90;;;;;;5091913;28;20940;-75
2022/11/03 11:02:43;;;;;;;11.23;2.60;;;14.10;99.90;;;;;;5114365;27;20406;-75
2022/11/03 11:05:21;;;;;;;10.00;2.40;;;14.20;99.90;;;;;;5100597;28;20463;-75
2022/11/03 11:07:52;;;;;;;11.63;2.63;;;14.30;99.90;;;;;;5105937;27;20450;-76
2022/11/03 11:10:21;;;;;;;12.93;2.55;;;14.40;99.90;;;;;;5108417;28;20411;-75
2022/11/03 11:13:28;;;;;;;8.45;2.00;;;14.50;99.90;;;;;;5124213;27;20426;-75
2022/11/03 11:15:58;;;;;;;12.00;2.65;;;14.70;99.90;;;;;;5026329;28;20863;-75
2022/11/03 11:18:30;;;;;;;8.50;2.13;;;14.70;99.90;;;;;;5004860;28;20427;-75
2022/11/03 11:21:16;;;;;;;9.63;2.30;;;14.80;99.90;;;;;;5063502;27;20497;-75
2022/11/03 11:23:44;;;;;;;11.32;2.22;;;14.90;99.90;;;;;;5119198;27;20434;-75
2022/11/03 11:26:09;;;;;;;10.18;2.22;;;15.00;99.90;;;;;;5106996;27;20415;-75
2022/11/03 11:28:40;;;;;;;8.93;2.30;;;15.20;99.90;;;;;;5123622;27;20423;-75
2022/11/03 11:31:28;;;;;;;10.07;1.95;;;15.50;99.90;;;;;;5102737;27;20420;-76
2022/11/03 11:34:09;;;;;;;13.65;2.50;;;15.40;99.90;;;;;;5127236;27;20776;-76
2022/11/03 11:36:36;;;;;;;9.90;2.30;;;15.40;99.90;;;;;;5091387;27;20920;-76
2022/11/03 11:39:32;;;;;;;8.60;2.03;;;15.40;99.90;;;;;;5092175;27;20445;-76
2022/11/03 11:42:14;;;;;;;7.90;1.85;;;15.50;99.90;;;;;;5127249;27;20410;-76
2022/11/03 11:44:42;;;;;;;9.18;2.13;;;15.60;99.90;;;;;;5121330;27;20422;-76
2022/11/03 11:47:39;;;;;;;9.82;1.95;;;15.70;99.90;;;;;;5090727;27;20409;-76
2022/11/03 11:50:10;;;;;;;12.20;1.95;;;15.80;99.90;;;;;;5086229;28;20428;-76
2022/11/03 11:53:06;;;;;;;9.15;2.38;;;15.90;99.90;;;;;;5126864;27;20780;-76
2022/11/03 11:55:40;;;;;;;9.30;2.25;;;15.90;99.90;;;;;;5085285;28;20428;-76
2022/11/03 11:58:21;;;;;;;8.20;1.73;;;15.80;99.90;;;;;;5106642;27;20489;-76
2022/11/03 12:01:02;;;;;;;8.57;1.65;;;15.70;99.90;;;;;;5123498;27;20397;-77
2022/11/03 12:03:37;;;;;;;8.90;2.13;;;15.70;99.90;;;;;;5108222;27;20425;-77
2022/11/03 12:06:03;;;;;;;7.88;1.88;;;15.60;99.90;;;;;;5108597;27;21116;-76
2022/11/03 12:08:30;;;;;;;9.15;1.95;;;15.50;99.90;;;;;;5108805;27;20896;-76
2022/11/03 12:10:58;;;;;;;9.13;1.92;;;15.40;99.90;;;;;;5106691;27;20453;-77
2022/11/03 12:13:51;;;;;;;8.23;1.83;;;15.40;99.90;;;;;;5109315;28;20402;-76
2022/11/03 12:16:35;;;;;;;8.75;1.70;;;15.40;99.90;;;;;;5087140;28;20459;-77
2022/11/03 12:19:39;;;;;;;8.88;1.92;;;15.30;99.90;;;;;;5110083;28;20488;-76
2022/11/03 12:22:31;;;;;;;6.30;1.63;;;15.30;99.90;;;;;;5107903;28;20431;-77
2022/11/03 12:24:56;;;;;;;9.00;2.10;;;15.20;99.90;;;;;;5120898;28;20422;-76
2022/11/03 12:27:25;;;;;;;8.10;2.00;;;15.20;99.90;;;;;;5127505;28;20401;-76
2022/11/03 12:29:58;;;;;;;7.78;1.98;;;15.10;99.90;;;;;;5090918;28;20407;-77
2022/11/03 12:32:24;;;;;;;7.60;1.63;;;15.10;99.90;;;;;;5107426;28;20761;-76
2022/11/03 12:34:49;;;;;;;8.98;1.75;;;15.10;99.90;;;;;;5102661;28;20537;-77
2022/11/03 12:37:15;;;;;;;9.57;2.13;;;15.10;99.90;;;;;;5128323;28;20390;-76
2022/11/03 12:39:40;;;;;;;9.15;1.63;;;15.00;99.90;;;;;;5101642;28;20405;-76
2022/11/03 12:42:06;;;;;;;9.93;1.97;;;15.00;99.90;;;;;;5121735;28;20543;-76
2022/11/03 12:44:32;;;;;;;6.75;1.40;;;14.90;99.90;;;;;;5085797;27;20435;-77
2022/11/03 12:46:59;;;;;;;8.70;1.75;;;14.90;99.90;;;;;;5114665;27;20458;-76
2022/11/03 12:49:25;;;;;;;7.45;1.88;;;14.90;99.90;;;;;;5113564;27;21012;-76
2022/11/03 12:51:51;;;;;;;8.18;1.75;;;14.90;99.90;;;;;;5113100;27;20505;-76
2022/11/03 12:54:17;;;;;;;9.00;1.83;;;14.80;99.90;;;;;;5129971;27;20422;-77
2022/11/03 12:56:43;;;;;;;7.50;1.30;;;14.80;99.90;;;;;;5128081;27;20420;-76
2022/11/03 12:59:08;;;;;;;6.13;1.38;;;14.80;99.90;;;;;;5131720;27;20433;-76
2022/11/03 13:01:35;;;;;;;7.85;1.80;;;14.80;99.90;;;;;;5131330;27;20406;-76
2022/11/03 13:04:00;;;;;;;9.00;1.90;;;14.80;99.90;;;;;;5113360;27;20422;-76
2022/11/03 13:06:26;;;;;;;5.60;1.30;;;14.80;99.90;;;;;;5113997;27;20768;-76
2022/11/03 13:08:52;;;;;;;8.65;1.60;;;14.80;99.90;;;;;;5113720;27;20446;-76
2022/11/03 13:14:04;;;;;;;6.53;1.40;;;14.70;99.90;;;;;;5110386;28;20427;-77
2022/11/03 13:16:30;;;;;;;7.55;1.50;;;14.70;99.90;;;;;;5111725;27;20463;-77
2022/11/03 13:18:55;;;;;;;6.60;1.42;;;14.70;99.90;;;;;;5123560;27;20574;-76
2022/11/03 13:21:21;;;;;;;5.28;1.48;;;14.70;99.90;;;;;;5121923;27;20456;-76